sensor_id;sensor_type;location;lat;lon;timestamp;P1;durP1;ratioP1;P2;durP2;ratioP2
46633;SDS011;32362;49.986;8.026;2022-11-11T00:22:57;26.50;;;11.10;;
46633;SDS011;32362;49.986;8.026;2022-11-11T01:18:03;31.23;;;12.70;;
46633;SDS011;32362;49.986;8.026;2022-11-11T01:45:40;27.48;;;10.75;;
46633;SDS011;32362;49.986;8.026;2022-11-11T02:12:41;33.28;;;11.45;;
46633;SDS011;32362;49.986;8.026;2022-11-11T02:39:59;25.20;;;8.43;;
46633;SDS011;32362;49.986;8.026;2022-11-11T03:07:01;22.85;;;7.70;;
46633;SDS011;32362;49.986;8.026;2022-11-11T03:34:01;32.92;;;12.52;;
46633;SDS011;32362;49.986;8.026;2022-11-11T04:01:15;29.67;;;10.43;;
46633;SDS011;32362;49.986;8.026;2022-11-11T04:28:35;30.63;;;9.13;;
46633;SDS011;32362;49.986;8.026;2022-11-11T04:55:53;23.05;;;8.30;;
46633;SDS011;32362;49.986;8.026;2022-11-11T05:23:12;28.70;;;7.73;;
46633;SDS011;32362;49.986;8.026;2022-11-11T05:50:11;13.47;;;5.03;;
46633;SDS011;32362;49.986;8.026;2022-11-11T06:17:10;15.07;;;5.97;;
46633;SDS011;32362;49.986;8.026;2022-11-11T06:44:09;22.87;;;6.00;;
46633;SDS011;32362;49.986;8.026;2022-11-11T07:11:08;11.98;;;3.30;;
46633;SDS011;32362;49.986;8.026;2022-11-11T07:38:07;4.85;;;2.33;;
46633;SDS011;32362;49.986;8.026;2022-11-11T08:05:07;11.17;;;5.37;;
46633;SDS011;32362;49.986;8.026;2022-11-11T08:32:07;8.57;;;4.75;;
46633;SDS011;32362;49.986;8.026;2022-11-11T08:59:06;8.67;;;4.63;;
46633;SDS011;32362;49.986;8.026;2022-11-11T09:26:07;14.07;;;7.00;;
46633;SDS011;32362;49.986;8.026;2022-11-11T09:53:27;13.57;;;7.30;;
46633;SDS011;32362;49.986;8.026;2022-11-11T10:20:32;8.63;;;5.32;;
46633;SDS011;32362;49.986;8.026;2022-11-11T10:47:41;13.45;;;6.53;;
46633;SDS011;32362;49.986;8.026;2022-11-11T11:15:00;11.18;;;7.32;;
46633;SDS011;32362;49.986;8.026;2022-11-11T11:42:03;13.63;;;7.60;;
46633;SDS011;32362;49.986;8.026;2022-11-11T12:36:55;16.15;;;9.10;;
46633;SDS011;32362;49.986;8.026;2022-11-11T13:03:46;16.30;;;9.52;;
46633;SDS011;32362;49.986;8.026;2022-11-11T13:57:54;22.48;;;10.57;;
46633;SDS011;32362;49.986;8.026;2022-11-11T14:24:53;25.57;;;11.80;;
46633;SDS011;32362;49.986;8.026;2022-11-11T14:51:54;30.87;;;13.30;;
46633;SDS011;32362;49.986;8.026;2022-11-11T15:46:06;27.55;;;13.82;;
46633;SDS011;32362;49.986;8.026;2022-11-11T16:13:12;26.83;;;14.23;;
46633;SDS011;32362;49.986;8.026;2022-11-11T16:40:23;41.75;;;17.25;;
46633;SDS011;32362;49.986;8.026;2022-11-11T17:07:33;35.22;;;15.95;;
46633;SDS011;32362;49.986;8.026;2022-11-11T17:34:34;39.83;;;17.35;;
46633;SDS011;32362;49.986;8.026;2022-11-11T18:01:33;33.47;;;14.53;;
46633;SDS011;32362;49.986;8.026;2022-11-11T18:28:33;33.63;;;12.90;;
46633;SDS011;32362;49.986;8.026;2022-11-11T18:55:34;38.58;;;15.13;;
46633;SDS011;32362;49.986;8.026;2022-11-11T19:22:33;31.97;;;15.43;;
46633;SDS011;32362;49.986;8.026;2022-11-11T19:49:33;31.98;;;12.85;;
46633;SDS011;32362;49.986;8.026;2022-11-11T20:16:32;25.00;;;11.27;;
46633;SDS011;32362;49.986;8.026;2022-11-11T21:10:31;41.58;;;13.80;;
46633;SDS011;32362;49.986;8.026;2022-11-11T21:37:30;27.63;;;11.33;;
46633;SDS011;32362;49.986;8.026;2022-11-11T22:04:29;30.10;;;12.37;;
46633;SDS011;32362;49.986;8.026;2022-11-11T22:31:28;33.70;;;13.37;;
46633;SDS011;32362;49.986;8.026;2022-11-11T22:58:30;28.25;;;11.82;;
46633;SDS011;32362;49.986;8.026;2022-11-11T23:25:32;25.05;;;11.57;;
46633;SDS011;32362;49.986;8.026;2022-11-11T23:52:31;31.70;;;10.65;;
